sensor_id;sensor_type;location;lat;lon;timestamp;P1;durP1;ratioP1;P2;durP2;ratioP2
59571;SDS011;70118;45.638;11.714;2023-07-31T00:00:44;4.00;;;1.60;;
59571;SDS011;70118;45.638;11.714;2023-07-31T00:03:11;4.65;;;1.50;;
59571;SDS011;70118;45.638;11.714;2023-07-31T00:05:37;3.67;;;1.70;;
59571;SDS011;70118;45.638;11.714;2023-07-31T00:08:03;4.60;;;1.40;;
59571;SDS011;70118;45.638;11.714;2023-07-31T00:10:29;4.47;;;1.55;;
59571;SDS011;70118;45.638;11.714;2023-07-31T00:12:55;4.35;;;1.55;;
59571;SDS011;70118;45.638;11.714;2023-07-31T00:15:20;5.03;;;1.50;;
59571;SDS011;70118;45.638;11.714;2023-07-31T00:17:46;4.97;;;1.90;;
59571;SDS011;70118;45.638;11.714;2023-07-31T00:20:12;4.30;;;1.73;;
59571;SDS011;70118;45.638;11.714;2023-07-31T00:22:38;3.50;;;1.23;;
59571;SDS011;70118;45.638;11.714;2023-07-31T00:25:04;3.90;;;1.52;;
59571;SDS011;70118;45.638;11.714;2023-07-31T00:27:31;4.18;;;1.80;;
59571;SDS011;70118;45.638;11.714;2023-07-31T00:29:57;5.00;;;1.55;;
59571;SDS011;70118;45.638;11.714;2023-07-31T00:32:23;5.07;;;1.27;;
59571;SDS011;70118;45.638;11.714;2023-07-31T00:34:49;3.78;;;1.70;;
59571;SDS011;70118;45.638;11.714;2023-07-31T00:37:15;4.68;;;1.40;;
59571;SDS011;70118;45.638;11.714;2023-07-31T00:39:41;3.70;;;1.50;;
59571;SDS011;70118;45.638;11.714;2023-07-31T00:42:07;3.65;;;1.50;;
59571;SDS011;70118;45.638;11.714;2023-07-31T00:44:33;4.60;;;1.80;;
59571;SDS011;70118;45.638;11.714;2023-07-31T00:46:59;3.20;;;1.33;;
59571;SDS011;70118;45.638;11.714;2023-07-31T00:49:25;4.20;;;1.55;;
59571;SDS011;70118;45.638;11.714;2023-07-31T00:51:52;4.63;;;1.52;;
59571;SDS011;70118;45.638;11.714;2023-07-31T00:54:18;4.10;;;1.60;;
59571;SDS011;70118;45.638;11.714;2023-07-31T00:56:47;3.40;;;1.40;;
59571;SDS011;70118;45.638;11.714;2023-07-31T00:59:13;5.37;;;1.63;;
59571;SDS011;70118;45.638;11.714;2023-07-31T01:01:39;4.70;;;1.38;;
59571;SDS011;70118;45.638;11.714;2023-07-31T01:04:06;4.53;;;1.40;;
59571;SDS011;70118;45.638;11.714;2023-07-31T01:06:36;4.00;;;1.50;;
59571;SDS011;70118;45.638;11.714;2023-07-31T01:12:08;4.40;;;1.50;;
59571;SDS011;70118;45.638;11.714;2023-07-31T01:14:37;3.63;;;1.75;;
59571;SDS011;70118;45.638;11.714;2023-07-31T01:17:04;3.30;;;1.30;;
59571;SDS011;70118;45.638;11.714;2023-07-31T01:19:30;3.70;;;1.48;;
59571;SDS011;70118;45.638;11.714;2023-07-31T01:22:05;4.40;;;1.60;;
59571;SDS011;70118;45.638;11.714;2023-07-31T01:24:55;3.80;;;1.25;;
59571;SDS011;70118;45.638;11.714;2023-07-31T01:27:26;3.83;;;1.77;;
59571;SDS011;70118;45.638;11.714;2023-07-31T01:30:10;4.22;;;1.70;;
59571;SDS011;70118;45.638;11.714;2023-07-31T01:32:42;3.70;;;1.20;;
59571;SDS011;70118;45.638;11.714;2023-07-31T01:35:11;4.38;;;1.70;;
59571;SDS011;70118;45.638;11.714;2023-07-31T01:37:37;3.50;;;1.20;;
59571;SDS011;70118;45.638;11.714;2023-07-31T01:40:04;3.78;;;1.30;;
59571;SDS011;70118;45.638;11.714;2023-07-31T01:42:30;4.33;;;1.93;;
59571;SDS011;70118;45.638;11.714;2023-07-31T01:44:56;3.50;;;1.50;;
59571;SDS011;70118;45.638;11.714;2023-07-31T01:47:22;3.63;;;1.73;;
59571;SDS011;70118;45.638;11.714;2023-07-31T01:49:48;3.93;;;1.50;;
59571;SDS011;70118;45.638;11.714;2023-07-31T01:52:14;3.33;;;1.30;;
59571;SDS011;70118;45.638;11.714;2023-07-31T01:54:40;3.63;;;1.52;;
59571;SDS011;70118;45.638;11.714;2023-07-31T01:57:06;4.13;;;1.67;;
59571;SDS011;70118;45.638;11.714;2023-07-31T01:59:32;4.60;;;1.50;;
59571;SDS011;70118;45.638;11.714;2023-07-31T02:01:58;4.15;;;1.75;;
59571;SDS011;70118;45.638;11.714;2023-07-31T02:04:23;3.93;;;1.97;;
59571;SDS011;70118;45.638;11.714;2023-07-31T02:06:49;3.80;;;1.73;;
59571;SDS011;70118;45.638;11.714;2023-07-31T02:09:15;4.20;;;1.63;;
59571;SDS011;70118;45.638;11.714;2023-07-31T02:11:41;3.70;;;1.50;;
59571;SDS011;70118;45.638;11.714;2023-07-31T02:14:07;3.55;;;1.70;;
59571;SDS011;70118;45.638;11.714;2023-07-31T02:16:33;4.13;;;1.55;;
59571;SDS011;70118;45.638;11.714;2023-07-31T02:18:59;3.63;;;1.67;;
59571;SDS011;70118;45.638;11.714;2023-07-31T02:21:24;4.18;;;1.70;;
59571;SDS011;70118;45.638;11.714;2023-07-31T02:23:50;3.67;;;1.70;;
59571;SDS011;70118;45.638;11.714;2023-07-31T02:26:16;3.70;;;1.70;;
59571;SDS011;70118;45.638;11.714;2023-07-31T02:28:42;3.58;;;1.80;;
59571;SDS011;70118;45.638;11.714;2023-07-31T02:31:08;3.47;;;1.60;;
59571;SDS011;70118;45.638;11.714;2023-07-31T02:33:34;4.60;;;1.70;;
59571;SDS011;70118;45.638;11.714;2023-07-31T02:36:00;4.60;;;2.08;;
59571;SDS011;70118;45.638;11.714;2023-07-31T02:38:26;6.13;;;1.80;;
59571;SDS011;70118;45.638;11.714;2023-07-31T02:40:52;3.47;;;1.70;;
59571;SDS011;70118;45.638;11.714;2023-07-31T02:43:17;4.20;;;2.20;;
59571;SDS011;70118;45.638;11.714;2023-07-31T02:45:43;4.18;;;2.10;;
59571;SDS011;70118;45.638;11.714;2023-07-31T02:48:09;4.00;;;1.80;;
59571;SDS011;70118;45.638;11.714;2023-07-31T02:50:35;4.38;;;1.88;;
59571;SDS011;70118;45.638;11.714;2023-07-31T02:53:01;4.25;;;1.98;;
59571;SDS011;70118;45.638;11.714;2023-07-31T02:55:26;3.53;;;1.93;;
59571;SDS011;70118;45.638;11.714;2023-07-31T02:57:53;3.80;;;1.75;;
59571;SDS011;70118;45.638;11.714;2023-07-31T03:00:18;4.80;;;2.00;;
59571;SDS011;70118;45.638;11.714;2023-07-31T03:02:44;3.83;;;2.10;;
59571;SDS011;70118;45.638;11.714;2023-07-31T03:05:10;4.05;;;2.08;;
59571;SDS011;70118;45.638;11.714;2023-07-31T03:07:36;3.92;;;2.13;;
59571;SDS011;70118;45.638;11.714;2023-07-31T03:10:02;4.87;;;2.50;;
59571;SDS011;70118;45.638;11.714;2023-07-31T03:12:29;4.38;;;2.30;;
59571;SDS011;70118;45.638;11.714;2023-07-31T03:14:54;4.60;;;2.53;;
59571;SDS011;70118;45.638;11.714;2023-07-31T03:17:20;5.90;;;2.40;;
59571;SDS011;70118;45.638;11.714;2023-07-31T03:19:46;4.40;;;2.28;;
59571;SDS011;70118;45.638;11.714;2023-07-31T03:22:12;4.35;;;2.58;;
59571;SDS011;70118;45.638;11.714;2023-07-31T03:24:38;6.37;;;2.53;;
59571;SDS011;70118;45.638;11.714;2023-07-31T03:27:04;5.25;;;2.33;;
59571;SDS011;70118;45.638;11.714;2023-07-31T03:29:30;4.13;;;2.20;;
59571;SDS011;70118;45.638;11.714;2023-07-31T03:31:56;4.40;;;2.23;;
59571;SDS011;70118;45.638;11.714;2023-07-31T03:34:22;4.07;;;2.30;;
59571;SDS011;70118;45.638;11.714;2023-07-31T03:36:48;4.97;;;2.10;;
59571;SDS011;70118;45.638;11.714;2023-07-31T03:39:13;3.97;;;2.30;;
59571;SDS011;70118;45.638;11.714;2023-07-31T03:41:39;4.63;;;2.00;;
59571;SDS011;70118;45.638;11.714;2023-07-31T03:44:05;4.32;;;2.20;;
59571;SDS011;70118;45.638;11.714;2023-07-31T03:46:31;4.37;;;2.23;;
59571;SDS011;70118;45.638;11.714;2023-07-31T03:48:57;4.82;;;2.00;;
59571;SDS011;70118;45.638;11.714;2023-07-31T03:51:23;4.15;;;2.25;;
59571;SDS011;70118;45.638;11.714;2023-07-31T03:53:48;4.40;;;2.00;;
59571;SDS011;70118;45.638;11.714;2023-07-31T03:56:14;4.10;;;2.10;;
59571;SDS011;70118;45.638;11.714;2023-07-31T03:58:40;4.07;;;2.35;;
59571;SDS011;70118;45.638;11.714;2023-07-31T04:01:06;4.23;;;2.27;;
59571;SDS011;70118;45.638;11.714;2023-07-31T04:03:32;5.07;;;2.08;;
59571;SDS011;70118;45.638;11.714;2023-07-31T04:05:58;4.00;;;2.00;;
59571;SDS011;70118;45.638;11.714;2023-07-31T04:08:24;4.00;;;2.08;;
59571;SDS011;70118;45.638;11.714;2023-07-31T04:10:50;4.85;;;2.22;;
59571;SDS011;70118;45.638;11.714;2023-07-31T04:13:16;5.03;;;2.53;;
59571;SDS011;70118;45.638;11.714;2023-07-31T04:15:41;4.63;;;2.00;;
59571;SDS011;70118;45.638;11.714;2023-07-31T04:18:07;4.35;;;2.17;;
59571;SDS011;70118;45.638;11.714;2023-07-31T04:20:33;5.03;;;2.17;;
59571;SDS011;70118;45.638;11.714;2023-07-31T04:22:59;4.30;;;2.10;;
59571;SDS011;70118;45.638;11.714;2023-07-31T04:25:25;4.28;;;2.00;;
59571;SDS011;70118;45.638;11.714;2023-07-31T04:27:51;3.80;;;1.95;;
59571;SDS011;70118;45.638;11.714;2023-07-31T04:30:17;4.33;;;2.03;;
59571;SDS011;70118;45.638;11.714;2023-07-31T04:32:43;4.07;;;2.10;;
59571;SDS011;70118;45.638;11.714;2023-07-31T04:35:08;3.83;;;1.60;;
59571;SDS011;70118;45.638;11.714;2023-07-31T04:37:34;5.53;;;2.10;;
59571;SDS011;70118;45.638;11.714;2023-07-31T04:40:00;4.07;;;2.03;;
59571;SDS011;70118;45.638;11.714;2023-07-31T04:42:26;5.18;;;1.90;;
59571;SDS011;70118;45.638;11.714;2023-07-31T04:44:52;4.90;;;2.13;;
59571;SDS011;70118;45.638;11.714;2023-07-31T04:47:18;4.15;;;2.13;;
59571;SDS011;70118;45.638;11.714;2023-07-31T04:49:44;3.97;;;1.90;;
59571;SDS011;70118;45.638;11.714;2023-07-31T04:52:10;3.90;;;2.03;;
59571;SDS011;70118;45.638;11.714;2023-07-31T04:54:36;4.07;;;1.92;;
59571;SDS011;70118;45.638;11.714;2023-07-31T04:57:02;4.90;;;1.95;;
59571;SDS011;70118;45.638;11.714;2023-07-31T04:59:29;3.80;;;1.90;;
59571;SDS011;70118;45.638;11.714;2023-07-31T05:01:58;4.45;;;1.65;;
59571;SDS011;70118;45.638;11.714;2023-07-31T05:04:25;3.90;;;1.95;;
59571;SDS011;70118;45.638;11.714;2023-07-31T05:06:51;3.88;;;2.10;;
59571;SDS011;70118;45.638;11.714;2023-07-31T05:09:17;4.33;;;2.00;;
59571;SDS011;70118;45.638;11.714;2023-07-31T05:11:43;4.43;;;2.10;;
59571;SDS011;70118;45.638;11.714;2023-07-31T05:14:09;6.70;;;1.95;;
59571;SDS011;70118;45.638;11.714;2023-07-31T05:16:35;4.20;;;1.95;;
59571;SDS011;70118;45.638;11.714;2023-07-31T05:19:01;4.23;;;2.30;;
59571;SDS011;70118;45.638;11.714;2023-07-31T05:21:29;5.40;;;2.10;;
59571;SDS011;70118;45.638;11.714;2023-07-31T05:23:56;4.97;;;2.60;;
59571;SDS011;70118;45.638;11.714;2023-07-31T05:26:22;4.77;;;2.27;;
59571;SDS011;70118;45.638;11.714;2023-07-31T05:28:48;4.57;;;2.37;;
59571;SDS011;70118;45.638;11.714;2023-07-31T05:31:15;4.47;;;2.35;;
59571;SDS011;70118;45.638;11.714;2023-07-31T05:33:48;6.63;;;2.67;;
59571;SDS011;70118;45.638;11.714;2023-07-31T05:36:16;5.70;;;2.05;;
59571;SDS011;70118;45.638;11.714;2023-07-31T05:38:43;4.50;;;2.30;;
59571;SDS011;70118;45.638;11.714;2023-07-31T05:41:12;4.20;;;1.77;;
59571;SDS011;70118;45.638;11.714;2023-07-31T05:43:38;4.03;;;1.80;;
59571;SDS011;70118;45.638;11.714;2023-07-31T05:46:04;3.90;;;1.73;;
59571;SDS011;70118;45.638;11.714;2023-07-31T05:48:31;4.40;;;1.98;;
59571;SDS011;70118;45.638;11.714;2023-07-31T05:50:59;4.40;;;2.20;;
59571;SDS011;70118;45.638;11.714;2023-07-31T05:53:25;5.00;;;2.20;;
59571;SDS011;70118;45.638;11.714;2023-07-31T05:55:54;5.25;;;2.17;;
59571;SDS011;70118;45.638;11.714;2023-07-31T05:58:36;4.00;;;1.88;;
59571;SDS011;70118;45.638;11.714;2023-07-31T06:01:06;4.80;;;2.35;;
59571;SDS011;70118;45.638;11.714;2023-07-31T06:03:36;6.50;;;2.00;;
59571;SDS011;70118;45.638;11.714;2023-07-31T06:06:24;4.65;;;1.90;;
59571;SDS011;70118;45.638;11.714;2023-07-31T06:08:55;5.45;;;2.08;;
59571;SDS011;70118;45.638;11.714;2023-07-31T06:11:23;4.85;;;2.40;;
59571;SDS011;70118;45.638;11.714;2023-07-31T06:13:52;6.40;;;2.58;;
59571;SDS011;70118;45.638;11.714;2023-07-31T06:16:23;4.37;;;2.30;;
59571;SDS011;70118;45.638;11.714;2023-07-31T06:19:01;4.60;;;2.10;;
59571;SDS011;70118;45.638;11.714;2023-07-31T06:21:30;4.15;;;1.90;;
59571;SDS011;70118;45.638;11.714;2023-07-31T06:24:13;4.22;;;2.08;;
59571;SDS011;70118;45.638;11.714;2023-07-31T06:26:46;4.55;;;1.83;;
59571;SDS011;70118;45.638;11.714;2023-07-31T06:29:15;4.40;;;2.00;;
59571;SDS011;70118;45.638;11.714;2023-07-31T06:31:47;5.65;;;1.85;;
59571;SDS011;70118;45.638;11.714;2023-07-31T06:34:20;4.05;;;1.70;;
59571;SDS011;70118;45.638;11.714;2023-07-31T06:36:50;4.20;;;1.92;;
59571;SDS011;70118;45.638;11.714;2023-07-31T06:39:19;4.00;;;1.80;;
59571;SDS011;70118;45.638;11.714;2023-07-31T06:41:52;3.53;;;1.70;;
59571;SDS011;70118;45.638;11.714;2023-07-31T06:44:21;4.78;;;2.10;;
59571;SDS011;70118;45.638;11.714;2023-07-31T06:46:50;5.07;;;2.17;;
59571;SDS011;70118;45.638;11.714;2023-07-31T06:49:26;3.95;;;1.60;;
59571;SDS011;70118;45.638;11.714;2023-07-31T06:52:16;4.75;;;1.90;;
59571;SDS011;70118;45.638;11.714;2023-07-31T06:54:44;4.30;;;1.80;;
59571;SDS011;70118;45.638;11.714;2023-07-31T06:57:14;4.18;;;1.80;;
59571;SDS011;70118;45.638;11.714;2023-07-31T06:59:48;3.90;;;1.33;;
59571;SDS011;70118;45.638;11.714;2023-07-31T07:02:18;4.20;;;1.65;;
59571;SDS011;70118;45.638;11.714;2023-07-31T07:05:01;4.25;;;1.83;;
59571;SDS011;70118;45.638;11.714;2023-07-31T07:07:28;3.33;;;1.53;;
59571;SDS011;70118;45.638;11.714;2023-07-31T07:09:58;4.05;;;1.90;;
59571;SDS011;70118;45.638;11.714;2023-07-31T07:12:29;4.30;;;1.50;;
59571;SDS011;70118;45.638;11.714;2023-07-31T07:15:02;3.42;;;1.60;;
59571;SDS011;70118;45.638;11.714;2023-07-31T07:17:37;3.90;;;1.60;;
59571;SDS011;70118;45.638;11.714;2023-07-31T07:20:10;4.90;;;2.00;;
59571;SDS011;70118;45.638;11.714;2023-07-31T07:22:43;5.82;;;1.80;;
59571;SDS011;70118;45.638;11.714;2023-07-31T07:25:10;3.63;;;1.45;;
59571;SDS011;70118;45.638;11.714;2023-07-31T07:27:38;3.90;;;1.60;;
59571;SDS011;70118;45.638;11.714;2023-07-31T07:30:05;3.40;;;1.33;;
59571;SDS011;70118;45.638;11.714;2023-07-31T07:32:34;3.60;;;1.67;;
59571;SDS011;70118;45.638;11.714;2023-07-31T07:35:00;8.65;;;1.67;;
59571;SDS011;70118;45.638;11.714;2023-07-31T07:37:26;5.35;;;1.67;;
59571;SDS011;70118;45.638;11.714;2023-07-31T07:39:52;4.35;;;1.77;;
59571;SDS011;70118;45.638;11.714;2023-07-31T07:42:18;3.90;;;1.50;;
59571;SDS011;70118;45.638;11.714;2023-07-31T07:44:44;3.72;;;1.30;;
59571;SDS011;70118;45.638;11.714;2023-07-31T07:47:11;3.70;;;1.48;;
59571;SDS011;70118;45.638;11.714;2023-07-31T07:49:37;3.80;;;1.42;;
59571;SDS011;70118;45.638;11.714;2023-07-31T07:52:04;3.67;;;1.45;;
59571;SDS011;70118;45.638;11.714;2023-07-31T07:54:30;3.70;;;1.40;;
59571;SDS011;70118;45.638;11.714;2023-07-31T07:56:57;3.35;;;1.38;;
59571;SDS011;70118;45.638;11.714;2023-07-31T07:59:23;3.63;;;1.45;;
59571;SDS011;70118;45.638;11.714;2023-07-31T08:01:49;3.42;;;1.20;;
59571;SDS011;70118;45.638;11.714;2023-07-31T08:04:15;4.47;;;1.27;;
59571;SDS011;70118;45.638;11.714;2023-07-31T08:06:43;3.90;;;1.40;;
59571;SDS011;70118;45.638;11.714;2023-07-31T08:09:13;3.30;;;1.30;;
59571;SDS011;70118;45.638;11.714;2023-07-31T08:11:40;4.32;;;1.80;;
59571;SDS011;70118;45.638;11.714;2023-07-31T08:14:07;3.55;;;1.30;;
59571;SDS011;70118;45.638;11.714;2023-07-31T08:16:41;3.10;;;1.17;;
59571;SDS011;70118;45.638;11.714;2023-07-31T08:19:06;3.93;;;1.40;;
59571;SDS011;70118;45.638;11.714;2023-07-31T08:21:32;3.53;;;1.10;;
59571;SDS011;70118;45.638;11.714;2023-07-31T08:23:58;3.15;;;1.20;;
59571;SDS011;70118;45.638;11.714;2023-07-31T08:26:24;3.50;;;1.20;;
59571;SDS011;70118;45.638;11.714;2023-07-31T08:28:50;3.20;;;1.38;;
59571;SDS011;70118;45.638;11.714;2023-07-31T08:31:16;5.60;;;1.50;;
59571;SDS011;70118;45.638;11.714;2023-07-31T08:33:43;3.67;;;1.50;;
59571;SDS011;70118;45.638;11.714;2023-07-31T08:36:09;3.88;;;1.15;;
59571;SDS011;70118;45.638;11.714;2023-07-31T08:38:35;3.50;;;1.30;;
59571;SDS011;70118;45.638;11.714;2023-07-31T08:41:02;4.37;;;1.20;;
59571;SDS011;70118;45.638;11.714;2023-07-31T08:43:29;4.38;;;1.33;;
59571;SDS011;70118;45.638;11.714;2023-07-31T08:45:56;3.90;;;1.20;;
59571;SDS011;70118;45.638;11.714;2023-07-31T08:48:22;3.33;;;1.30;;
59571;SDS011;70118;45.638;11.714;2023-07-31T08:50:49;3.43;;;1.20;;
59571;SDS011;70118;45.638;11.714;2023-07-31T08:53:17;4.45;;;1.27;;
59571;SDS011;70118;45.638;11.714;2023-07-31T08:55:43;3.15;;;1.13;;
59571;SDS011;70118;45.638;11.714;2023-07-31T08:58:10;3.05;;;1.00;;
59571;SDS011;70118;45.638;11.714;2023-07-31T09:00:39;3.30;;;1.20;;
59571;SDS011;70118;45.638;11.714;2023-07-31T09:03:11;3.45;;;1.20;;
59571;SDS011;70118;45.638;11.714;2023-07-31T09:05:41;3.60;;;1.30;;
59571;SDS011;70118;45.638;11.714;2023-07-31T09:08:09;3.15;;;0.95;;
59571;SDS011;70118;45.638;11.714;2023-07-31T09:10:39;3.42;;;1.13;;
59571;SDS011;70118;45.638;11.714;2023-07-31T09:13:09;3.20;;;1.10;;
59571;SDS011;70118;45.638;11.714;2023-07-31T09:15:36;2.92;;;1.10;;
59571;SDS011;70118;45.638;11.714;2023-07-31T09:18:03;3.40;;;1.30;;
59571;SDS011;70118;45.638;11.714;2023-07-31T09:20:30;2.97;;;1.08;;
59571;SDS011;70118;45.638;11.714;2023-07-31T09:23:04;3.05;;;0.95;;
59571;SDS011;70118;45.638;11.714;2023-07-31T09:25:34;3.00;;;0.90;;
59571;SDS011;70118;45.638;11.714;2023-07-31T09:28:02;3.67;;;1.10;;
59571;SDS011;70118;45.638;11.714;2023-07-31T09:30:30;3.53;;;1.10;;
59571;SDS011;70118;45.638;11.714;2023-07-31T09:33:05;3.10;;;1.10;;
59571;SDS011;70118;45.638;11.714;2023-07-31T09:35:33;2.83;;;0.90;;
59571;SDS011;70118;45.638;11.714;2023-07-31T09:38:07;5.57;;;1.00;;
59571;SDS011;70118;45.638;11.714;2023-07-31T09:40:36;3.03;;;0.98;;
59571;SDS011;70118;45.638;11.714;2023-07-31T09:43:04;3.90;;;1.20;;
59571;SDS011;70118;45.638;11.714;2023-07-31T09:45:33;3.70;;;1.05;;
59571;SDS011;70118;45.638;11.714;2023-07-31T09:48:01;3.40;;;1.38;;
59571;SDS011;70118;45.638;11.714;2023-07-31T09:50:27;2.97;;;0.80;;
59571;SDS011;70118;45.638;11.714;2023-07-31T09:52:54;3.45;;;1.02;;
59571;SDS011;70118;45.638;11.714;2023-07-31T09:55:20;3.55;;;1.08;;
59571;SDS011;70118;45.638;11.714;2023-07-31T09:57:47;3.05;;;1.10;;
59571;SDS011;70118;45.638;11.714;2023-07-31T10:00:15;2.87;;;1.03;;
59571;SDS011;70118;45.638;11.714;2023-07-31T10:02:46;4.10;;;1.00;;
59571;SDS011;70118;45.638;11.714;2023-07-31T10:05:16;2.90;;;0.90;;
59571;SDS011;70118;45.638;11.714;2023-07-31T10:07:45;2.75;;;0.80;;
59571;SDS011;70118;45.638;11.714;2023-07-31T10:10:16;2.72;;;0.90;;
59571;SDS011;70118;45.638;11.714;2023-07-31T10:12:45;2.90;;;0.83;;
59571;SDS011;70118;45.638;11.714;2023-07-31T10:15:13;4.35;;;0.88;;
59571;SDS011;70118;45.638;11.714;2023-07-31T10:17:40;4.10;;;1.00;;
59571;SDS011;70118;45.638;11.714;2023-07-31T10:20:06;3.33;;;1.08;;
59571;SDS011;70118;45.638;11.714;2023-07-31T10:22:33;3.25;;;1.00;;
59571;SDS011;70118;45.638;11.714;2023-07-31T10:25:00;3.10;;;1.03;;
59571;SDS011;70118;45.638;11.714;2023-07-31T10:27:26;3.28;;;1.00;;
59571;SDS011;70118;45.638;11.714;2023-07-31T10:29:56;3.28;;;1.10;;
59571;SDS011;70118;45.638;11.714;2023-07-31T10:32:23;2.97;;;0.93;;
59571;SDS011;70118;45.638;11.714;2023-07-31T10:34:51;3.30;;;0.85;;
59571;SDS011;70118;45.638;11.714;2023-07-31T10:40:00;2.75;;;0.98;;
59571;SDS011;70118;45.638;11.714;2023-07-31T10:42:34;2.97;;;0.90;;
59571;SDS011;70118;45.638;11.714;2023-07-31T10:45:03;2.88;;;0.70;;
59571;SDS011;70118;45.638;11.714;2023-07-31T10:47:36;3.65;;;0.93;;
59571;SDS011;70118;45.638;11.714;2023-07-31T10:50:20;2.97;;;0.90;;
59571;SDS011;70118;45.638;11.714;2023-07-31T10:52:50;4.05;;;0.90;;
59571;SDS011;70118;45.638;11.714;2023-07-31T10:57:51;5.63;;;0.85;;
59571;SDS011;70118;45.638;11.714;2023-07-31T11:15:58;3.50;;;1.30;;
59571;SDS011;70118;45.638;11.714;2023-07-31T11:18:25;3.65;;;1.50;;
59571;SDS011;70118;45.638;11.714;2023-07-31T11:20:52;8.07;;;1.70;;
59571;SDS011;70118;45.638;11.714;2023-07-31T11:23:19;4.53;;;1.88;;
59571;SDS011;70118;45.638;11.714;2023-07-31T11:25:45;3.78;;;1.48;;
59571;SDS011;70118;45.638;11.714;2023-07-31T11:28:12;4.40;;;1.90;;
59571;SDS011;70118;45.638;11.714;2023-07-31T11:30:39;4.10;;;1.60;;
59571;SDS011;70118;45.638;11.714;2023-07-31T11:33:06;4.68;;;1.60;;
59571;SDS011;70118;45.638;11.714;2023-07-31T11:35:46;4.30;;;1.63;;
59571;SDS011;70118;45.638;11.714;2023-07-31T11:38:33;3.80;;;1.60;;
59571;SDS011;70118;45.638;11.714;2023-07-31T11:41:02;4.00;;;1.50;;
59571;SDS011;70118;45.638;11.714;2023-07-31T11:43:30;3.50;;;1.23;;
59571;SDS011;70118;45.638;11.714;2023-07-31T11:45:59;4.47;;;1.63;;
59571;SDS011;70118;45.638;11.714;2023-07-31T11:48:32;4.28;;;1.35;;
59571;SDS011;70118;45.638;11.714;2023-07-31T11:51:04;4.47;;;1.40;;
59571;SDS011;70118;45.638;11.714;2023-07-31T11:53:33;3.70;;;1.00;;
59571;SDS011;70118;45.638;11.714;2023-07-31T11:56:05;3.60;;;1.20;;
59571;SDS011;70118;45.638;11.714;2023-07-31T11:58:34;3.63;;;1.40;;
59571;SDS011;70118;45.638;11.714;2023-07-31T12:01:01;4.47;;;1.10;;
59571;SDS011;70118;45.638;11.714;2023-07-31T12:03:27;4.15;;;1.20;;
59571;SDS011;70118;45.638;11.714;2023-07-31T12:05:54;4.27;;;1.20;;
59571;SDS011;70118;45.638;11.714;2023-07-31T12:08:23;3.55;;;1.30;;
59571;SDS011;70118;45.638;11.714;2023-07-31T12:10:51;3.55;;;1.20;;
59571;SDS011;70118;45.638;11.714;2023-07-31T12:13:21;3.42;;;1.20;;
59571;SDS011;70118;45.638;11.714;2023-07-31T12:15:54;3.88;;;1.20;;
59571;SDS011;70118;45.638;11.714;2023-07-31T12:18:26;3.03;;;0.90;;
59571;SDS011;70118;45.638;11.714;2023-07-31T12:20:57;2.80;;;0.80;;
59571;SDS011;70118;45.638;11.714;2023-07-31T12:23:30;3.50;;;0.90;;
59571;SDS011;70118;45.638;11.714;2023-07-31T12:26:14;3.53;;;1.17;;
59571;SDS011;70118;45.638;11.714;2023-07-31T12:28:43;3.50;;;0.93;;
59571;SDS011;70118;45.638;11.714;2023-07-31T12:31:17;2.83;;;0.90;;
59571;SDS011;70118;45.638;11.714;2023-07-31T12:33:46;2.95;;;0.93;;
59571;SDS011;70118;45.638;11.714;2023-07-31T12:36:18;2.88;;;1.00;;
59571;SDS011;70118;45.638;11.714;2023-07-31T12:38:46;4.07;;;0.82;;
59571;SDS011;70118;45.638;11.714;2023-07-31T12:41:12;3.92;;;0.90;;
59571;SDS011;70118;45.638;11.714;2023-07-31T12:43:39;3.57;;;1.27;;
59571;SDS011;70118;45.638;11.714;2023-07-31T12:46:06;3.13;;;1.00;;
59571;SDS011;70118;45.638;11.714;2023-07-31T12:48:33;3.70;;;1.08;;
59571;SDS011;70118;45.638;11.714;2023-07-31T12:50:59;3.55;;;0.98;;
59571;SDS011;70118;45.638;11.714;2023-07-31T12:53:26;3.92;;;0.98;;
59571;SDS011;70118;45.638;11.714;2023-07-31T12:55:58;3.00;;;0.87;;
59571;SDS011;70118;45.638;11.714;2023-07-31T12:58:24;3.42;;;0.80;;
59571;SDS011;70118;45.638;11.714;2023-07-31T13:00:51;3.17;;;0.90;;
59571;SDS011;70118;45.638;11.714;2023-07-31T13:03:22;3.83;;;1.00;;
59571;SDS011;70118;45.638;11.714;2023-07-31T13:05:51;3.40;;;0.85;;
59571;SDS011;70118;45.638;11.714;2023-07-31T13:08:18;2.90;;;1.10;;
59571;SDS011;70118;45.638;11.714;2023-07-31T13:10:44;3.83;;;0.73;;
59571;SDS011;70118;45.638;11.714;2023-07-31T13:13:11;3.92;;;0.80;;
59571;SDS011;70118;45.638;11.714;2023-07-31T13:15:38;2.97;;;0.82;;
59571;SDS011;70118;45.638;11.714;2023-07-31T13:18:03;3.10;;;0.70;;
59571;SDS011;70118;45.638;11.714;2023-07-31T13:20:29;2.90;;;0.85;;
59571;SDS011;70118;45.638;11.714;2023-07-31T13:22:55;4.05;;;0.90;;
59571;SDS011;70118;45.638;11.714;2023-07-31T13:25:21;2.80;;;0.70;;
59571;SDS011;70118;45.638;11.714;2023-07-31T13:27:47;3.22;;;0.90;;
59571;SDS011;70118;45.638;11.714;2023-07-31T13:30:12;3.00;;;0.50;;
59571;SDS011;70118;45.638;11.714;2023-07-31T13:32:38;3.22;;;0.70;;
59571;SDS011;70118;45.638;11.714;2023-07-31T13:35:05;3.33;;;0.60;;
59571;SDS011;70118;45.638;11.714;2023-07-31T13:37:32;3.17;;;0.90;;
59571;SDS011;70118;45.638;11.714;2023-07-31T13:39:57;3.08;;;0.70;;
59571;SDS011;70118;45.638;11.714;2023-07-31T13:42:23;3.42;;;0.88;;
59571;SDS011;70118;45.638;11.714;2023-07-31T13:44:49;2.40;;;0.50;;
59571;SDS011;70118;45.638;11.714;2023-07-31T13:47:15;2.85;;;0.85;;
59571;SDS011;70118;45.638;11.714;2023-07-31T13:49:41;3.22;;;0.85;;
59571;SDS011;70118;45.638;11.714;2023-07-31T13:52:08;3.27;;;0.70;;
59571;SDS011;70118;45.638;11.714;2023-07-31T13:54:34;3.00;;;0.70;;
59571;SDS011;70118;45.638;11.714;2023-07-31T13:57:01;2.42;;;0.73;;
59571;SDS011;70118;45.638;11.714;2023-07-31T13:59:28;3.80;;;1.00;;
59571;SDS011;70118;45.638;11.714;2023-07-31T14:01:54;3.43;;;1.00;;
59571;SDS011;70118;45.638;11.714;2023-07-31T14:04:20;3.78;;;0.90;;
59571;SDS011;70118;45.638;11.714;2023-07-31T14:06:46;3.00;;;0.73;;
59571;SDS011;70118;45.638;11.714;2023-07-31T14:09:14;2.80;;;0.67;;
59571;SDS011;70118;45.638;11.714;2023-07-31T14:11:43;3.55;;;0.70;;
59571;SDS011;70118;45.638;11.714;2023-07-31T14:14:10;3.30;;;0.70;;
59571;SDS011;70118;45.638;11.714;2023-07-31T14:16:37;3.72;;;0.80;;
59571;SDS011;70118;45.638;11.714;2023-07-31T14:19:03;3.30;;;0.60;;
59571;SDS011;70118;45.638;11.714;2023-07-31T14:21:29;2.50;;;0.60;;
59571;SDS011;70118;45.638;11.714;2023-07-31T14:23:56;2.70;;;0.63;;
59571;SDS011;70118;45.638;11.714;2023-07-31T14:26:23;2.95;;;0.60;;
59571;SDS011;70118;45.638;11.714;2023-07-31T14:28:50;2.85;;;0.60;;
59571;SDS011;70118;45.638;11.714;2023-07-31T14:31:17;2.17;;;0.40;;
59571;SDS011;70118;45.638;11.714;2023-07-31T14:33:43;3.60;;;0.70;;
59571;SDS011;70118;45.638;11.714;2023-07-31T14:36:11;2.20;;;0.75;;
59571;SDS011;70118;45.638;11.714;2023-07-31T14:38:36;2.53;;;0.50;;
59571;SDS011;70118;45.638;11.714;2023-07-31T14:41:03;3.25;;;0.60;;
59571;SDS011;70118;45.638;11.714;2023-07-31T14:43:29;4.60;;;0.75;;
59571;SDS011;70118;45.638;11.714;2023-07-31T14:45:54;2.50;;;0.45;;
59571;SDS011;70118;45.638;11.714;2023-07-31T14:48:25;3.00;;;0.80;;
59571;SDS011;70118;45.638;11.714;2023-07-31T14:50:52;2.50;;;0.50;;
59571;SDS011;70118;45.638;11.714;2023-07-31T14:53:18;3.45;;;0.65;;
59571;SDS011;70118;45.638;11.714;2023-07-31T14:55:44;2.08;;;0.40;;
59571;SDS011;70118;45.638;11.714;2023-07-31T14:58:10;2.47;;;0.70;;
59571;SDS011;70118;45.638;11.714;2023-07-31T15:00:36;3.30;;;0.60;;